sensor_id;sensor_type;location;lat;lon;timestamp;temperature;humidity
10459;DHT22;5277;48.722;8.736;2023-05-23T00:01:12;15.20;99.90
10459;DHT22;5277;48.722;8.736;2023-05-23T00:03:39;15.20;99.90
10459;DHT22;5277;48.722;8.736;2023-05-23T00:06:06;15.10;99.90
10459;DHT22;5277;48.722;8.736;2023-05-23T00:08:31;15.10;99.90
10459;DHT22;5277;48.722;8.736;2023-05-23T00:10:57;15.00;99.90
10459;DHT22;5277;48.722;8.736;2023-05-23T00:13:22;14.90;99.90
10459;DHT22;5277;48.722;8.736;2023-05-23T00:15:48;14.90;99.90
10459;DHT22;5277;48.722;8.736;2023-05-23T00:18:14;15.00;99.90
10459;DHT22;5277;48.722;8.736;2023-05-23T00:20:41;15.00;99.90
10459;DHT22;5277;48.722;8.736;2023-05-23T00:23:08;14.90;99.90
10459;DHT22;5277;48.722;8.736;2023-05-23T00:25:35;14.90;99.90
10459;DHT22;5277;48.722;8.736;2023-05-23T00:28:01;14.90;99.90
10459;DHT22;5277;48.722;8.736;2023-05-23T00:30:29;14.80;99.90
10459;DHT22;5277;48.722;8.736;2023-05-23T00:32:55;14.70;99.90
10459;DHT22;5277;48.722;8.736;2023-05-23T00:35:21;14.80;99.90
10459;DHT22;5277;48.722;8.736;2023-05-23T00:37:48;14.80;99.90
10459;DHT22;5277;48.722;8.736;2023-05-23T00:40:14;14.80;99.90
10459;DHT22;5277;48.722;8.736;2023-05-23T00:42:40;14.70;99.90
10459;DHT22;5277;48.722;8.736;2023-05-23T00:45:06;14.70;99.90
10459;DHT22;5277;48.722;8.736;2023-05-23T00:47:32;14.70;99.90
10459;DHT22;5277;48.722;8.736;2023-05-23T00:49:58;14.70;99.90
10459;DHT22;5277;48.722;8.736;2023-05-23T00:52:24;14.90;99.90
10459;DHT22;5277;48.722;8.736;2023-05-23T00:54:49;14.80;99.90
10459;DHT22;5277;48.722;8.736;2023-05-23T00:57:15;14.90;99.90
10459;DHT22;5277;48.722;8.736;2023-05-23T00:59:41;14.90;99.90
10459;DHT22;5277;48.722;8.736;2023-05-23T01:02:07;14.90;99.90
10459;DHT22;5277;48.722;8.736;2023-05-23T01:04:33;14.90;99.90
10459;DHT22;5277;48.722;8.736;2023-05-23T01:07:00;14.90;99.90
10459;DHT22;5277;48.722;8.736;2023-05-23T01:09:27;15.00;99.90
10459;DHT22;5277;48.722;8.736;2023-05-23T01:14:41;15.00;99.90
10459;DHT22;5277;48.722;8.736;2023-05-23T01:17:14;15.10;99.90
10459;DHT22;5277;48.722;8.736;2023-05-23T01:19:58;15.10;99.90
10459;DHT22;5277;48.722;8.736;2023-05-23T01:22:48;15.10;99.90
10459;DHT22;5277;48.722;8.736;2023-05-23T01:25:37;15.00;99.90
10459;DHT22;5277;48.722;8.736;2023-05-23T01:28:09;15.00;99.90
10459;DHT22;5277;48.722;8.736;2023-05-23T01:30:39;15.10;99.90
10459;DHT22;5277;48.722;8.736;2023-05-23T01:33:07;15.10;99.90
10459;DHT22;5277;48.722;8.736;2023-05-23T01:35:33;15.10;99.90
10459;DHT22;5277;48.722;8.736;2023-05-23T01:37:59;15.20;99.90
10459;DHT22;5277;48.722;8.736;2023-05-23T01:40:26;15.20;99.90
10459;DHT22;5277;48.722;8.736;2023-05-23T01:42:52;15.20;99.90
10459;DHT22;5277;48.722;8.736;2023-05-23T01:45:19;15.20;99.90
10459;DHT22;5277;48.722;8.736;2023-05-23T01:47:47;15.20;99.90
10459;DHT22;5277;48.722;8.736;2023-05-23T01:50:14;15.20;99.90
10459;DHT22;5277;48.722;8.736;2023-05-23T01:52:40;15.30;99.90
10459;DHT22;5277;48.722;8.736;2023-05-23T01:55:07;15.30;99.90
10459;DHT22;5277;48.722;8.736;2023-05-23T01:57:35;15.40;99.90
10459;DHT22;5277;48.722;8.736;2023-05-23T02:00:05;15.40;99.90
10459;DHT22;5277;48.722;8.736;2023-05-23T02:02:34;15.50;99.90
10459;DHT22;5277;48.722;8.736;2023-05-23T02:05:00;15.50;99.90
10459;DHT22;5277;48.722;8.736;2023-05-23T02:07:25;15.60;99.90
10459;DHT22;5277;48.722;8.736;2023-05-23T02:09:51;15.60;99.90
10459;DHT22;5277;48.722;8.736;2023-05-23T02:12:17;15.60;99.90
10459;DHT22;5277;48.722;8.736;2023-05-23T02:14:42;15.60;99.90
10459;DHT22;5277;48.722;8.736;2023-05-23T02:17:08;15.50;99.90
10459;DHT22;5277;48.722;8.736;2023-05-23T02:19:39;15.50;99.90
10459;DHT22;5277;48.722;8.736;2023-05-23T02:22:05;15.50;99.90
10459;DHT22;5277;48.722;8.736;2023-05-23T02:24:30;15.40;99.90
10459;DHT22;5277;48.722;8.736;2023-05-23T02:26:56;15.50;99.90
10459;DHT22;5277;48.722;8.736;2023-05-23T02:29:21;15.50;99.90
10459;DHT22;5277;48.722;8.736;2023-05-23T02:31:47;15.60;99.90
10459;DHT22;5277;48.722;8.736;2023-05-23T02:34:12;15.60;99.90
10459;DHT22;5277;48.722;8.736;2023-05-23T02:36:38;15.60;99.90
10459;DHT22;5277;48.722;8.736;2023-05-23T02:39:05;15.60;99.90
10459;DHT22;5277;48.722;8.736;2023-05-23T02:41:31;15.60;99.90
10459;DHT22;5277;48.722;8.736;2023-05-23T02:43:57;15.70;99.90
10459;DHT22;5277;48.722;8.736;2023-05-23T02:46:23;15.60;99.90
10459;DHT22;5277;48.722;8.736;2023-05-23T02:48:49;15.70;99.90
10459;DHT22;5277;48.722;8.736;2023-05-23T02:51:14;15.70;99.90
10459;DHT22;5277;48.722;8.736;2023-05-23T02:53:40;15.70;99.90
10459;DHT22;5277;48.722;8.736;2023-05-23T02:56:06;15.70;99.90
10459;DHT22;5277;48.722;8.736;2023-05-23T02:58:33;15.70;99.90
10459;DHT22;5277;48.722;8.736;2023-05-23T03:01:03;15.70;99.90
10459;DHT22;5277;48.722;8.736;2023-05-23T03:03:29;15.70;99.90
10459;DHT22;5277;48.722;8.736;2023-05-23T03:05:56;15.60;99.90
10459;DHT22;5277;48.722;8.736;2023-05-23T03:08:22;15.60;99.90
10459;DHT22;5277;48.722;8.736;2023-05-23T03:10:48;15.60;99.90
10459;DHT22;5277;48.722;8.736;2023-05-23T03:13:14;15.70;99.90
10459;DHT22;5277;48.722;8.736;2023-05-23T03:15:39;15.70;99.90
10459;DHT22;5277;48.722;8.736;2023-05-23T03:18:05;15.80;99.90
10459;DHT22;5277;48.722;8.736;2023-05-23T03:20:30;15.70;99.90
10459;DHT22;5277;48.722;8.736;2023-05-23T03:22:56;15.80;99.90
10459;DHT22;5277;48.722;8.736;2023-05-23T03:25:22;15.70;99.90
10459;DHT22;5277;48.722;8.736;2023-05-23T03:27:47;15.70;99.90
10459;DHT22;5277;48.722;8.736;2023-05-23T03:30:13;15.70;99.90
10459;DHT22;5277;48.722;8.736;2023-05-23T03:32:39;15.80;99.90
10459;DHT22;5277;48.722;8.736;2023-05-23T03:35:05;15.70;99.90
10459;DHT22;5277;48.722;8.736;2023-05-23T03:37:30;15.80;99.90
10459;DHT22;5277;48.722;8.736;2023-05-23T03:39:56;15.90;99.90
10459;DHT22;5277;48.722;8.736;2023-05-23T03:42:21;15.90;99.90
10459;DHT22;5277;48.722;8.736;2023-05-23T03:44:47;15.80;99.90
10459;DHT22;5277;48.722;8.736;2023-05-23T03:47:12;15.80;99.90
10459;DHT22;5277;48.722;8.736;2023-05-23T03:49:38;15.90;99.90
10459;DHT22;5277;48.722;8.736;2023-05-23T03:52:03;15.90;99.90
10459;DHT22;5277;48.722;8.736;2023-05-23T03:54:29;15.80;99.90
10459;DHT22;5277;48.722;8.736;2023-05-23T03:56:55;15.90;99.90
10459;DHT22;5277;48.722;8.736;2023-05-23T03:59:21;15.90;99.90
10459;DHT22;5277;48.722;8.736;2023-05-23T04:01:46;15.90;99.90
10459;DHT22;5277;48.722;8.736;2023-05-23T04:04:12;16.00;99.90
10459;DHT22;5277;48.722;8.736;2023-05-23T04:06:38;15.90;99.90
10459;DHT22;5277;48.722;8.736;2023-05-23T04:09:03;15.80;99.90
10459;DHT22;5277;48.722;8.736;2023-05-23T04:11:30;15.90;99.90
10459;DHT22;5277;48.722;8.736;2023-05-23T04:13:56;15.90;99.90
10459;DHT22;5277;48.722;8.736;2023-05-23T04:16:22;15.90;99.90
10459;DHT22;5277;48.722;8.736;2023-05-23T04:18:48;15.90;99.90
10459;DHT22;5277;48.722;8.736;2023-05-23T04:21:14;15.90;99.90
10459;DHT22;5277;48.722;8.736;2023-05-23T04:23:40;16.00;99.90
10459;DHT22;5277;48.722;8.736;2023-05-23T04:26:05;15.90;99.90
10459;DHT22;5277;48.722;8.736;2023-05-23T04:28:32;16.10;99.90
10459;DHT22;5277;48.722;8.736;2023-05-23T04:30:58;16.00;99.90
10459;DHT22;5277;48.722;8.736;2023-05-23T04:33:23;16.10;99.90
10459;DHT22;5277;48.722;8.736;2023-05-23T04:35:50;16.10;99.90
10459;DHT22;5277;48.722;8.736;2023-05-23T04:38:16;16.10;99.90
10459;DHT22;5277;48.722;8.736;2023-05-23T04:40:42;16.10;99.90
10459;DHT22;5277;48.722;8.736;2023-05-23T04:43:07;16.00;99.90
10459;DHT22;5277;48.722;8.736;2023-05-23T04:45:34;16.10;99.90
10459;DHT22;5277;48.722;8.736;2023-05-23T04:48:01;16.00;99.90
10459;DHT22;5277;48.722;8.736;2023-05-23T04:50:27;16.10;99.90
10459;DHT22;5277;48.722;8.736;2023-05-23T04:52:56;16.10;99.90
10459;DHT22;5277;48.722;8.736;2023-05-23T04:55:21;16.10;99.90
10459;DHT22;5277;48.722;8.736;2023-05-23T04:57:47;16.10;99.90
10459;DHT22;5277;48.722;8.736;2023-05-23T05:00:13;16.10;99.90
10459;DHT22;5277;48.722;8.736;2023-05-23T05:02:39;16.10;99.90
10459;DHT22;5277;48.722;8.736;2023-05-23T05:05:05;16.10;99.90
10459;DHT22;5277;48.722;8.736;2023-05-23T05:07:31;16.10;99.90
10459;DHT22;5277;48.722;8.736;2023-05-23T05:09:57;16.20;99.90
10459;DHT22;5277;48.722;8.736;2023-05-23T05:12:22;16.20;99.90
10459;DHT22;5277;48.722;8.736;2023-05-23T05:14:48;16.20;99.90
10459;DHT22;5277;48.722;8.736;2023-05-23T05:17:14;16.20;99.90
10459;DHT22;5277;48.722;8.736;2023-05-23T05:19:39;16.20;99.90
10459;DHT22;5277;48.722;8.736;2023-05-23T05:22:05;16.10;99.90
10459;DHT22;5277;48.722;8.736;2023-05-23T05:24:32;16.20;99.90
10459;DHT22;5277;48.722;8.736;2023-05-23T05:26:57;16.20;99.90
10459;DHT22;5277;48.722;8.736;2023-05-23T05:29:23;16.30;99.90
10459;DHT22;5277;48.722;8.736;2023-05-23T05:31:49;16.30;99.90
10459;DHT22;5277;48.722;8.736;2023-05-23T05:34:16;16.30;99.90
10459;DHT22;5277;48.722;8.736;2023-05-23T05:36:42;16.40;99.90
10459;DHT22;5277;48.722;8.736;2023-05-23T05:39:14;16.50;99.90
10459;DHT22;5277;48.722;8.736;2023-05-23T05:41:39;16.50;99.90
10459;DHT22;5277;48.722;8.736;2023-05-23T05:44:06;16.60;99.90
10459;DHT22;5277;48.722;8.736;2023-05-23T05:46:31;16.60;99.90
10459;DHT22;5277;48.722;8.736;2023-05-23T05:48:57;16.60;99.90
10459;DHT22;5277;48.722;8.736;2023-05-23T05:51:22;16.70;99.90
10459;DHT22;5277;48.722;8.736;2023-05-23T05:53:48;16.60;99.90
10459;DHT22;5277;48.722;8.736;2023-05-23T05:56:14;16.70;99.90
10459;DHT22;5277;48.722;8.736;2023-05-23T05:58:40;16.80;99.90
10459;DHT22;5277;48.722;8.736;2023-05-23T06:01:05;16.70;99.90
10459;DHT22;5277;48.722;8.736;2023-05-23T06:03:32;16.80;99.90
10459;DHT22;5277;48.722;8.736;2023-05-23T06:05:58;16.90;99.90
10459;DHT22;5277;48.722;8.736;2023-05-23T06:08:24;16.90;99.90
10459;DHT22;5277;48.722;8.736;2023-05-23T06:10:49;16.90;99.90
10459;DHT22;5277;48.722;8.736;2023-05-23T06:13:15;17.00;99.90
10459;DHT22;5277;48.722;8.736;2023-05-23T06:15:41;17.10;99.90
10459;DHT22;5277;48.722;8.736;2023-05-23T06:18:06;17.10;99.90
10459;DHT22;5277;48.722;8.736;2023-05-23T06:20:32;17.20;99.90
10459;DHT22;5277;48.722;8.736;2023-05-23T06:22:57;17.40;99.90
10459;DHT22;5277;48.722;8.736;2023-05-23T06:25:24;17.50;99.90
10459;DHT22;5277;48.722;8.736;2023-05-23T06:27:50;17.60;99.90
10459;DHT22;5277;48.722;8.736;2023-05-23T06:30:16;17.60;99.90
10459;DHT22;5277;48.722;8.736;2023-05-23T06:32:41;17.70;99.90
10459;DHT22;5277;48.722;8.736;2023-05-23T06:35:07;17.80;99.90
10459;DHT22;5277;48.722;8.736;2023-05-23T06:37:33;17.90;99.90
10459;DHT22;5277;48.722;8.736;2023-05-23T06:39:59;18.00;99.90
10459;DHT22;5277;48.722;8.736;2023-05-23T06:42:25;18.10;99.90
10459;DHT22;5277;48.722;8.736;2023-05-23T06:44:51;17.90;99.90
10459;DHT22;5277;48.722;8.736;2023-05-23T06:47:16;18.00;99.90
10459;DHT22;5277;48.722;8.736;2023-05-23T06:49:42;18.00;99.90
10459;DHT22;5277;48.722;8.736;2023-05-23T06:52:07;17.90;99.90
10459;DHT22;5277;48.722;8.736;2023-05-23T06:54:33;17.90;99.90
10459;DHT22;5277;48.722;8.736;2023-05-23T06:56:59;17.90;99.90
10459;DHT22;5277;48.722;8.736;2023-05-23T06:59:24;17.80;99.90
10459;DHT22;5277;48.722;8.736;2023-05-23T07:01:50;17.70;99.90
10459;DHT22;5277;48.722;8.736;2023-05-23T07:04:16;17.70;99.90
10459;DHT22;5277;48.722;8.736;2023-05-23T07:06:41;17.60;99.90
10459;DHT22;5277;48.722;8.736;2023-05-23T07:09:07;17.60;99.90
10459;DHT22;5277;48.722;8.736;2023-05-23T07:11:32;17.60;99.90
10459;DHT22;5277;48.722;8.736;2023-05-23T07:13:59;17.60;99.90
10459;DHT22;5277;48.722;8.736;2023-05-23T07:16:25;17.60;99.90
10459;DHT22;5277;48.722;8.736;2023-05-23T07:18:51;17.60;99.90
10459;DHT22;5277;48.722;8.736;2023-05-23T07:21:16;17.50;99.90
10459;DHT22;5277;48.722;8.736;2023-05-23T07:23:42;17.50;99.90
10459;DHT22;5277;48.722;8.736;2023-05-23T07:26:08;17.40;99.90
10459;DHT22;5277;48.722;8.736;2023-05-23T07:28:34;17.40;99.90
10459;DHT22;5277;48.722;8.736;2023-05-23T07:31:00;17.40;99.90
10459;DHT22;5277;48.722;8.736;2023-05-23T07:33:26;17.40;99.90
10459;DHT22;5277;48.722;8.736;2023-05-23T07:35:52;17.40;99.90
10459;DHT22;5277;48.722;8.736;2023-05-23T07:38:17;17.40;99.90
10459;DHT22;5277;48.722;8.736;2023-05-23T07:40:43;17.30;99.90
10459;DHT22;5277;48.722;8.736;2023-05-23T07:43:08;17.20;99.90
10459;DHT22;5277;48.722;8.736;2023-05-23T07:45:34;17.10;99.90
10459;DHT22;5277;48.722;8.736;2023-05-23T07:48:00;17.20;99.90
10459;DHT22;5277;48.722;8.736;2023-05-23T07:50:26;17.20;99.90
10459;DHT22;5277;48.722;8.736;2023-05-23T07:52:52;17.30;99.90
10459;DHT22;5277;48.722;8.736;2023-05-23T07:55:18;17.30;99.90
10459;DHT22;5277;48.722;8.736;2023-05-23T07:57:43;17.30;99.90
10459;DHT22;5277;48.722;8.736;2023-05-23T08:00:10;17.50;99.90
10459;DHT22;5277;48.722;8.736;2023-05-23T08:02:38;17.70;99.90
10459;DHT22;5277;48.722;8.736;2023-05-23T08:05:04;18.00;99.90
10459;DHT22;5277;48.722;8.736;2023-05-23T08:07:31;18.10;99.90
10459;DHT22;5277;48.722;8.736;2023-05-23T08:09:56;18.20;99.90
10459;DHT22;5277;48.722;8.736;2023-05-23T08:12:22;18.20;99.90
10459;DHT22;5277;48.722;8.736;2023-05-23T08:14:47;18.10;99.90
10459;DHT22;5277;48.722;8.736;2023-05-23T08:17:13;18.10;99.90
10459;DHT22;5277;48.722;8.736;2023-05-23T08:19:39;18.00;99.90
10459;DHT22;5277;48.722;8.736;2023-05-23T08:22:04;17.90;99.90
10459;DHT22;5277;48.722;8.736;2023-05-23T08:24:30;18.00;99.90
10459;DHT22;5277;48.722;8.736;2023-05-23T08:26:56;17.90;99.90
10459;DHT22;5277;48.722;8.736;2023-05-23T08:29:21;17.90;99.90
10459;DHT22;5277;48.722;8.736;2023-05-23T08:31:47;17.90;99.90
10459;DHT22;5277;48.722;8.736;2023-05-23T08:34:13;18.00;99.90
10459;DHT22;5277;48.722;8.736;2023-05-23T08:36:39;17.90;99.90
10459;DHT22;5277;48.722;8.736;2023-05-23T08:39:06;18.00;99.90
10459;DHT22;5277;48.722;8.736;2023-05-23T08:41:33;18.00;99.90
10459;DHT22;5277;48.722;8.736;2023-05-23T08:43:59;18.00;99.90
10459;DHT22;5277;48.722;8.736;2023-05-23T08:46:28;18.10;99.90
10459;DHT22;5277;48.722;8.736;2023-05-23T08:48:55;18.20;99.90
10459;DHT22;5277;48.722;8.736;2023-05-23T08:51:25;18.00;99.90
10459;DHT22;5277;48.722;8.736;2023-05-23T08:53:51;18.20;99.90
10459;DHT22;5277;48.722;8.736;2023-05-23T08:56:23;18.20;99.90
10459;DHT22;5277;48.722;8.736;2023-05-23T08:58:53;18.30;99.90
10459;DHT22;5277;48.722;8.736;2023-05-23T09:01:20;18.40;99.90
10459;DHT22;5277;48.722;8.736;2023-05-23T09:03:47;18.60;99.90
10459;DHT22;5277;48.722;8.736;2023-05-23T09:06:14;18.60;99.90
10459;DHT22;5277;48.722;8.736;2023-05-23T09:08:42;18.70;99.90
10459;DHT22;5277;48.722;8.736;2023-05-23T09:11:10;18.70;99.90
10459;DHT22;5277;48.722;8.736;2023-05-23T09:13:37;18.70;99.90
10459;DHT22;5277;48.722;8.736;2023-05-23T09:16:06;18.60;99.90
10459;DHT22;5277;48.722;8.736;2023-05-23T09:18:36;18.70;99.90
10459;DHT22;5277;48.722;8.736;2023-05-23T09:21:03;18.80;99.90
10459;DHT22;5277;48.722;8.736;2023-05-23T09:23:32;18.80;99.80
10459;DHT22;5277;48.722;8.736;2023-05-23T09:26:11;18.80;99.90
10459;DHT22;5277;48.722;8.736;2023-05-23T09:28:41;18.70;99.90
10459;DHT22;5277;48.722;8.736;2023-05-23T09:31:08;18.80;99.90
10459;DHT22;5277;48.722;8.736;2023-05-23T09:33:45;18.90;99.90
10459;DHT22;5277;48.722;8.736;2023-05-23T09:36:14;18.80;99.90
10459;DHT22;5277;48.722;8.736;2023-05-23T09:38:41;18.80;99.90
10459;DHT22;5277;48.722;8.736;2023-05-23T09:41:07;19.00;99.90
10459;DHT22;5277;48.722;8.736;2023-05-23T09:43:33;19.20;99.90
10459;DHT22;5277;48.722;8.736;2023-05-23T09:46:11;19.40;99.90
10459;DHT22;5277;48.722;8.736;2023-05-23T09:48:37;19.60;99.70
10459;DHT22;5277;48.722;8.736;2023-05-23T09:51:04;19.90;99.00
10459;DHT22;5277;48.722;8.736;2023-05-23T09:53:30;20.10;98.50
10459;DHT22;5277;48.722;8.736;2023-05-23T09:55:58;20.20;98.20
10459;DHT22;5277;48.722;8.736;2023-05-23T09:58:25;20.30;97.50
10459;DHT22;5277;48.722;8.736;2023-05-23T10:00:52;20.10;97.20
10459;DHT22;5277;48.722;8.736;2023-05-23T10:03:26;20.20;97.50
10459;DHT22;5277;48.722;8.736;2023-05-23T10:06:19;20.10;98.00
10459;DHT22;5277;48.722;8.736;2023-05-23T10:09:01;20.00;98.40
10459;DHT22;5277;48.722;8.736;2023-05-23T10:16:40;20.00;97.70
10459;DHT22;5277;48.722;8.736;2023-05-23T10:19:16;20.00;97.70
10459;DHT22;5277;48.722;8.736;2023-05-23T10:21:50;20.10;97.50
10459;DHT22;5277;48.722;8.736;2023-05-23T10:24:17;20.00;96.70
10459;DHT22;5277;48.722;8.736;2023-05-23T10:26:44;20.10;96.80
10459;DHT22;5277;48.722;8.736;2023-05-23T10:29:10;20.20;97.10
10459;DHT22;5277;48.722;8.736;2023-05-23T10:31:36;20.30;96.90
10459;DHT22;5277;48.722;8.736;2023-05-23T10:34:12;20.30;96.70
10459;DHT22;5277;48.722;8.736;2023-05-23T10:36:59;20.30;96.70
10459;DHT22;5277;48.722;8.736;2023-05-23T10:45:22;20.10;97.20
10459;DHT22;5277;48.722;8.736;2023-05-23T10:47:50;20.30;96.20
10459;DHT22;5277;48.722;8.736;2023-05-23T10:50:31;20.60;96.40
10459;DHT22;5277;48.722;8.736;2023-05-23T10:52:59;20.90;96.30
10459;DHT22;5277;48.722;8.736;2023-05-23T10:55:25;20.90;95.80
10459;DHT22;5277;48.722;8.736;2023-05-23T10:58:14;20.80;96.10
10459;DHT22;5277;48.722;8.736;2023-05-23T11:00:52;20.80;96.10
10459;DHT22;5277;48.722;8.736;2023-05-23T11:03:28;21.10;96.20
10459;DHT22;5277;48.722;8.736;2023-05-23T11:05:56;21.30;95.60
10459;DHT22;5277;48.722;8.736;2023-05-23T11:08:23;21.40;95.50
10459;DHT22;5277;48.722;8.736;2023-05-23T11:11:02;21.40;95.10
10459;DHT22;5277;48.722;8.736;2023-05-23T11:13:54;21.10;94.80
10459;DHT22;5277;48.722;8.736;2023-05-23T11:16:29;20.80;94.80
10459;DHT22;5277;48.722;8.736;2023-05-23T11:21:49;20.50;95.40
10459;DHT22;5277;48.722;8.736;2023-05-23T11:24:16;20.40;95.30
10459;DHT22;5277;48.722;8.736;2023-05-23T11:26:56;20.40;95.50
10459;DHT22;5277;48.722;8.736;2023-05-23T11:29:26;20.40;95.70
10459;DHT22;5277;48.722;8.736;2023-05-23T11:31:53;20.30;94.90
10459;DHT22;5277;48.722;8.736;2023-05-23T11:34:19;20.10;95.20
10459;DHT22;5277;48.722;8.736;2023-05-23T11:36:46;20.00;95.80
10459;DHT22;5277;48.722;8.736;2023-05-23T11:39:12;20.30;95.60
10459;DHT22;5277;48.722;8.736;2023-05-23T11:41:41;20.60;95.50
10459;DHT22;5277;48.722;8.736;2023-05-23T11:44:11;20.60;95.50
10459;DHT22;5277;48.722;8.736;2023-05-23T11:46:38;20.40;94.60
10459;DHT22;5277;48.722;8.736;2023-05-23T11:49:10;20.40;95.60
10459;DHT22;5277;48.722;8.736;2023-05-23T11:51:36;20.40;95.30
10459;DHT22;5277;48.722;8.736;2023-05-23T11:54:05;20.50;95.30
10459;DHT22;5277;48.722;8.736;2023-05-23T11:56:38;20.70;95.10
10459;DHT22;5277;48.722;8.736;2023-05-23T11:59:03;20.90;94.70
10459;DHT22;5277;48.722;8.736;2023-05-23T12:01:29;21.10;94.40
10459;DHT22;5277;48.722;8.736;2023-05-23T12:03:55;21.20;94.10
10459;DHT22;5277;48.722;8.736;2023-05-23T12:06:23;21.40;93.90
10459;DHT22;5277;48.722;8.736;2023-05-23T12:08:51;21.40;93.40
10459;DHT22;5277;48.722;8.736;2023-05-23T12:11:17;21.50;92.70
10459;DHT22;5277;48.722;8.736;2023-05-23T12:13:43;22.00;91.90
10459;DHT22;5277;48.722;8.736;2023-05-23T12:16:09;21.90;92.40
10459;DHT22;5277;48.722;8.736;2023-05-23T12:18:37;21.80;92.20
10459;DHT22;5277;48.722;8.736;2023-05-23T12:21:04;21.80;92.00
10459;DHT22;5277;48.722;8.736;2023-05-23T12:23:32;21.40;92.50
10459;DHT22;5277;48.722;8.736;2023-05-23T12:26:03;21.40;93.30
10459;DHT22;5277;48.722;8.736;2023-05-23T12:28:51;21.60;93.30
10459;DHT22;5277;48.722;8.736;2023-05-23T12:31:19;21.80;92.20
10459;DHT22;5277;48.722;8.736;2023-05-23T12:33:46;21.90;92.30
10459;DHT22;5277;48.722;8.736;2023-05-23T12:36:22;21.90;92.70
10459;DHT22;5277;48.722;8.736;2023-05-23T12:38:48;21.70;91.70
10459;DHT22;5277;48.722;8.736;2023-05-23T12:41:19;21.70;92.60
10459;DHT22;5277;48.722;8.736;2023-05-23T12:43:49;21.70;92.20
10459;DHT22;5277;48.722;8.736;2023-05-23T12:46:16;21.70;92.40
10459;DHT22;5277;48.722;8.736;2023-05-23T12:48:41;21.60;92.70
10459;DHT22;5277;48.722;8.736;2023-05-23T12:51:07;22.00;92.00
10459;DHT22;5277;48.722;8.736;2023-05-23T12:53:33;21.90;91.10
10459;DHT22;5277;48.722;8.736;2023-05-23T12:55:59;22.40;91.70
10459;DHT22;5277;48.722;8.736;2023-05-23T12:58:25;22.60;90.00
10459;DHT22;5277;48.722;8.736;2023-05-23T13:00:51;22.60;90.80
10459;DHT22;5277;48.722;8.736;2023-05-23T13:03:19;22.40;90.40
10459;DHT22;5277;48.722;8.736;2023-05-23T13:05:45;22.10;90.10
10459;DHT22;5277;48.722;8.736;2023-05-23T13:08:10;22.10;90.60
10459;DHT22;5277;48.722;8.736;2023-05-23T13:10:37;21.80;90.50
10459;DHT22;5277;48.722;8.736;2023-05-23T13:13:05;21.30;91.00
10459;DHT22;5277;48.722;8.736;2023-05-23T13:15:31;21.50;91.40
10459;DHT22;5277;48.722;8.736;2023-05-23T13:17:57;21.20;91.70
10459;DHT22;5277;48.722;8.736;2023-05-23T13:20:25;21.20;91.90
10459;DHT22;5277;48.722;8.736;2023-05-23T13:22:57;21.20;92.40
10459;DHT22;5277;48.722;8.736;2023-05-23T13:25:24;21.30;92.80
10459;DHT22;5277;48.722;8.736;2023-05-23T13:27:50;21.20;92.20
10459;DHT22;5277;48.722;8.736;2023-05-23T13:30:18;21.20;92.70
10459;DHT22;5277;48.722;8.736;2023-05-23T13:32:44;21.10;92.80
10459;DHT22;5277;48.722;8.736;2023-05-23T13:35:09;21.30;92.50
10459;DHT22;5277;48.722;8.736;2023-05-23T13:37:37;21.10;93.10
10459;DHT22;5277;48.722;8.736;2023-05-23T13:40:06;21.00;93.60
10459;DHT22;5277;48.722;8.736;2023-05-23T13:42:33;20.70;93.40
10459;DHT22;5277;48.722;8.736;2023-05-23T13:45:01;20.50;93.80
10459;DHT22;5277;48.722;8.736;2023-05-23T13:47:26;20.30;94.00
10459;DHT22;5277;48.722;8.736;2023-05-23T13:49:52;20.30;94.20
10459;DHT22;5277;48.722;8.736;2023-05-23T13:52:20;20.30;94.20
10459;DHT22;5277;48.722;8.736;2023-05-23T13:54:45;20.20;94.10
10459;DHT22;5277;48.722;8.736;2023-05-23T13:57:14;20.20;94.30
10459;DHT22;5277;48.722;8.736;2023-05-23T13:59:39;20.30;94.30
10459;DHT22;5277;48.722;8.736;2023-05-23T14:02:06;20.30;94.70
10459;DHT22;5277;48.722;8.736;2023-05-23T14:04:32;20.20;93.80
10459;DHT22;5277;48.722;8.736;2023-05-23T14:06:58;20.30;93.70
10459;DHT22;5277;48.722;8.736;2023-05-23T14:09:24;20.20;94.30
10459;DHT22;5277;48.722;8.736;2023-05-23T14:11:49;20.10;93.60
10459;DHT22;5277;48.722;8.736;2023-05-23T14:14:18;20.20;93.90
10459;DHT22;5277;48.722;8.736;2023-05-23T14:16:46;20.20;94.00
10459;DHT22;5277;48.722;8.736;2023-05-23T14:19:14;20.30;94.00
10459;DHT22;5277;48.722;8.736;2023-05-23T14:21:40;20.20;94.50
10459;DHT22;5277;48.722;8.736;2023-05-23T14:24:06;20.10;94.20
10459;DHT22;5277;48.722;8.736;2023-05-23T14:26:34;20.10;94.70
10459;DHT22;5277;48.722;8.736;2023-05-23T14:29:01;20.20;94.90
10459;DHT22;5277;48.722;8.736;2023-05-23T14:31:26;20.10;94.70
10459;DHT22;5277;48.722;8.736;2023-05-23T14:33:52;20.20;94.50
10459;DHT22;5277;48.722;8.736;2023-05-23T14:36:18;20.10;94.00
10459;DHT22;5277;48.722;8.736;2023-05-23T14:38:46;20.10;94.40
10459;DHT22;5277;48.722;8.736;2023-05-23T14:41:15;20.20;94.40
10459;DHT22;5277;48.722;8.736;2023-05-23T14:43:41;20.10;95.30
10459;DHT22;5277;48.722;8.736;2023-05-23T14:46:09;20.00;95.50
10459;DHT22;5277;48.722;8.736;2023-05-23T14:48:35;19.90;96.20
10459;DHT22;5277;48.722;8.736;2023-05-23T14:51:00;20.00;95.80
10459;DHT22;5277;48.722;8.736;2023-05-23T14:53:27;20.10;95.60
10459;DHT22;5277;48.722;8.736;2023-05-23T14:55:53;20.20;95.00
10459;DHT22;5277;48.722;8.736;2023-05-23T14:58:20;20.00;94.50
10459;DHT22;5277;48.722;8.736;2023-05-23T15:00:45;20.10;95.00
10459;DHT22;5277;48.722;8.736;2023-05-23T15:03:12;20.10;94.40
10459;DHT22;5277;48.722;8.736;2023-05-23T15:05:38;20.00;95.10
10459;DHT22;5277;48.722;8.736;2023-05-23T15:08:06;20.00;94.80
10459;DHT22;5277;48.722;8.736;2023-05-23T15:10:35;19.90;95.00
10459;DHT22;5277;48.722;8.736;2023-05-23T15:13:01;20.00;94.90
10459;DHT22;5277;48.722;8.736;2023-05-23T15:15:30;19.90;94.80
10459;DHT22;5277;48.722;8.736;2023-05-23T15:18:07;19.80;95.60
10459;DHT22;5277;48.722;8.736;2023-05-23T15:20:35;19.60;95.60
10459;DHT22;5277;48.722;8.736;2023-05-23T15:23:06;19.50;96.10
10459;DHT22;5277;48.722;8.736;2023-05-23T15:25:32;19.50;95.20
10459;DHT22;5277;48.722;8.736;2023-05-23T15:27:58;19.40;94.90
10459;DHT22;5277;48.722;8.736;2023-05-23T15:30:24;19.20;95.40
10459;DHT22;5277;48.722;8.736;2023-05-23T15:32:49;19.00;95.60
10459;DHT22;5277;48.722;8.736;2023-05-23T15:35:18;18.90;96.10
10459;DHT22;5277;48.722;8.736;2023-05-23T15:37:44;18.90;96.70
10459;DHT22;5277;48.722;8.736;2023-05-23T15:40:11;19.00;97.00
10459;DHT22;5277;48.722;8.736;2023-05-23T15:42:37;19.10;96.40
10459;DHT22;5277;48.722;8.736;2023-05-23T15:45:03;19.00;96.20
10459;DHT22;5277;48.722;8.736;2023-05-23T15:47:29;19.00;96.10
10459;DHT22;5277;48.722;8.736;2023-05-23T15:49:55;19.00;96.10
10459;DHT22;5277;48.722;8.736;2023-05-23T15:52:20;18.90;96.60
10459;DHT22;5277;48.722;8.736;2023-05-23T15:54:46;19.00;97.70
10459;DHT22;5277;48.722;8.736;2023-05-23T15:57:12;19.00;97.20
10459;DHT22;5277;48.722;8.736;2023-05-23T15:59:38;19.00;97.00
10459;DHT22;5277;48.722;8.736;2023-05-23T16:02:04;18.90;96.90